createdAt,value
2023-06-02T00:02:02.333Z,98217.41
2023-06-02T00:04:30.944Z,98220.00
2023-06-02T00:07:04.611Z,98228.91
2023-06-02T00:09:38.480Z,98233.88
2023-06-02T00:12:07.128Z,98232.53
2023-06-02T00:14:34.151Z,98228.22
2023-06-02T00:17:02.254Z,98235.84
2023-06-02T00:19:32.295Z,98229.41
2023-06-02T00:22:01.673Z,98232.91
2023-06-02T00:24:28.701Z,98228.25
2023-06-02T00:26:56.116Z,98231.91
2023-06-02T00:29:23.420Z,98236.84
2023-06-02T00:31:51.288Z,98233.19
2023-06-02T00:34:18.871Z,98232.88
2023-06-02T00:36:47.085Z,98239.00
2023-06-02T00:39:16.338Z,98237.91
2023-06-02T00:41:45.885Z,98237.19
2023-06-02T00:44:13.406Z,98232.00
2023-06-02T00:46:40.653Z,98235.09
2023-06-02T00:49:07.909Z,98231.31
2023-06-02T00:51:35.622Z,98220.47
2023-06-02T00:54:02.744Z,98226.84
2023-06-02T00:56:30.483Z,98234.72
2023-06-02T00:58:57.557Z,98228.44
2023-06-02T01:01:24.857Z,98228.97
2023-06-02T01:03:52.185Z,98228.31
2023-06-02T01:06:24.516Z,98232.88
2023-06-02T01:08:53.103Z,98231.00
2023-06-02T01:11:21.206Z,98232.44
2023-06-02T01:13:50.128Z,98227.63
2023-06-02T01:16:17.503Z,98233.84
2023-06-02T01:18:46.633Z,98236.25
2023-06-02T01:21:24.599Z,98236.50
2023-06-02T01:23:55.463Z,98246.53
2023-06-02T01:26:22.899Z,98248.28
2023-06-02T01:28:50.474Z,98252.06
2023-06-02T01:31:27.415Z,98247.91
2023-06-02T01:34:15.784Z,98244.28
2023-06-02T01:36:44.590Z,98246.56
2023-06-02T01:39:13.018Z,98249.56
2023-06-02T01:41:44.482Z,98244.66
2023-06-02T01:44:12.457Z,98245.22
2023-06-02T01:46:42.265Z,98250.78
2023-06-02T01:49:17.346Z,98251.63
2023-06-02T01:51:45.504Z,98260.25
2023-06-02T01:54:12.558Z,98263.09
2023-06-02T01:56:40.076Z,98264.50
2023-06-02T01:59:07.242Z,98259.78
2023-06-02T02:01:35.397Z,98261.75
2023-06-02T02:04:02.543Z,98271.25
2023-06-02T02:06:33.566Z,98269.44
2023-06-02T02:09:01.259Z,98266.53
2023-06-02T02:11:29.074Z,98270.16
2023-06-02T02:13:56.111Z,98266.31
2023-06-02T02:16:23.525Z,98272.16
2023-06-02T02:18:53.830Z,98266.06
2023-06-02T02:21:21.739Z,98280.22
2023-06-02T02:23:49.295Z,98276.91
2023-06-02T02:26:17.789Z,98275.22
2023-06-02T02:28:44.755Z,98277.09
2023-06-02T02:31:12.583Z,98283.34
2023-06-02T02:33:40.423Z,98288.56
2023-06-02T02:36:09.754Z,98283.84
2023-06-02T02:38:36.765Z,98284.34
2023-06-02T02:41:04.237Z,98289.25
2023-06-02T02:43:31.181Z,98287.56
2023-06-02T02:45:58.554Z,98285.44
2023-06-02T02:48:26.132Z,98291.28
2023-06-02T02:50:54.668Z,98296.56
2023-06-02T02:53:23.546Z,98301.84
2023-06-02T02:55:52.886Z,98290.56
2023-06-02T02:58:21.216Z,98300.78
2023-06-02T03:00:49.253Z,98301.75
2023-06-02T03:03:16.713Z,98297.56
2023-06-02T03:05:46.584Z,98297.34
2023-06-02T03:08:13.913Z,98307.84
2023-06-02T03:10:41.437Z,98307.66
2023-06-02T03:13:08.418Z,98298.16
2023-06-02T03:15:35.740Z,98304.75
2023-06-02T03:18:05.037Z,98300.50
2023-06-02T03:20:33.275Z,98297.84
2023-06-02T03:23:00.389Z,98302.16
2023-06-02T03:25:28.078Z,98308.81
2023-06-02T03:27:55.125Z,98303.94
2023-06-02T03:30:22.829Z,98309.44
2023-06-02T03:32:49.943Z,98311.03
2023-06-02T03:35:17.371Z,98320.06
2023-06-02T03:37:44.436Z,98316.78
2023-06-02T03:40:12.236Z,98314.81
2023-06-02T03:42:39.397Z,98321.88
2023-06-02T03:45:07.403Z,98323.56
2023-06-02T03:47:34.783Z,98323.72
2023-06-02T03:50:02.211Z,98316.59
2023-06-02T03:52:32.253Z,98318.63
2023-06-02T03:55:00.194Z,98323.00
2023-06-02T03:57:27.591Z,98325.28
2023-06-02T03:59:55.232Z,98326.91
2023-06-02T04:02:22.552Z,98327.81
2023-06-02T04:04:50.167Z,98330.34
2023-06-02T04:07:17.353Z,98335.31
2023-06-02T04:09:44.973Z,98337.31
2023-06-02T04:12:12.058Z,98345.66
2023-06-02T04:14:39.919Z,98352.03
2023-06-02T04:17:07.195Z,98347.44
2023-06-02T04:19:34.857Z,98343.69
2023-06-02T04:22:01.888Z,98340.50
2023-06-02T04:24:29.682Z,98340.81
2023-06-02T04:26:56.885Z,98340.41
2023-06-02T04:29:24.562Z,98339.38
2023-06-02T04:31:51.987Z,98334.06
2023-06-02T04:34:19.341Z,98342.34
2023-06-02T04:36:46.455Z,98342.72
2023-06-02T04:39:14.376Z,98342.28
2023-06-02T04:41:42.346Z,98345.19
2023-06-02T04:44:10.252Z,98345.56
2023-06-02T04:46:37.774Z,98342.75
2023-06-02T04:49:10.459Z,98345.00
2023-06-02T04:51:39.043Z,98342.91
2023-06-02T04:54:09.653Z,98342.72
2023-06-02T04:56:37.840Z,98349.25
2023-06-02T04:59:05.527Z,98346.59
2023-06-02T05:01:32.751Z,98354.72
2023-06-02T05:04:00.359Z,98351.72
2023-06-02T05:06:27.609Z,98346.47
2023-06-02T05:08:55.121Z,98355.81
2023-06-02T05:11:22.386Z,98357.13
2023-06-02T05:13:50.247Z,98364.41
2023-06-02T05:16:19.112Z,98356.19
2023-06-02T05:18:46.388Z,98361.81
2023-06-02T05:21:13.966Z,98360.81
2023-06-02T05:23:41.443Z,98363.81
2023-06-02T05:26:08.747Z,98375.38
2023-06-02T05:28:36.555Z,98374.13
2023-06-02T05:31:05.262Z,98377.09
2023-06-02T05:33:32.828Z,98375.38
2023-06-02T05:36:00.220Z,98385.69
2023-06-02T05:38:27.692Z,98380.50
2023-06-02T05:40:55.138Z,98384.41
2023-06-02T05:43:22.663Z,98380.03
2023-06-02T05:45:49.830Z,98379.09
2023-06-02T05:48:17.261Z,98385.66
2023-06-02T05:50:45.088Z,98382.56
2023-06-02T05:53:12.538Z,98383.69
2023-06-02T05:55:40.004Z,98387.84
2023-06-02T05:58:07.835Z,98388.81
2023-06-02T06:00:35.401Z,98390.22
2023-06-02T06:03:03.683Z,98393.97
2023-06-02T06:05:32.286Z,98390.03
2023-06-02T06:07:59.846Z,98389.38
2023-06-02T06:10:27.230Z,98384.75
2023-06-02T06:12:57.894Z,98381.97
2023-06-02T06:15:25.412Z,98383.34
2023-06-02T06:17:54.068Z,98390.22
2023-06-02T06:20:22.411Z,98392.03
2023-06-02T06:22:49.851Z,98399.31
2023-06-02T06:25:17.148Z,98397.06
2023-06-02T06:27:44.869Z,98401.13
2023-06-02T06:30:12.333Z,98400.88
2023-06-02T06:32:40.232Z,98396.72
2023-06-02T06:35:10.123Z,98401.16
2023-06-02T06:37:37.577Z,98402.56
2023-06-02T06:40:05.375Z,98405.31
2023-06-02T06:42:33.100Z,98408.66
2023-06-02T06:45:00.356Z,98403.38
2023-06-02T06:47:28.097Z,98413.06
2023-06-02T06:49:56.313Z,98408.38
2023-06-02T06:52:24.662Z,98407.84
2023-06-02T06:54:51.997Z,98411.66
2023-06-02T06:57:20.692Z,98414.50
2023-06-02T06:59:51.115Z,98421.75
2023-06-02T07:02:19.949Z,98413.88
2023-06-02T07:04:47.332Z,98422.34
2023-06-02T07:07:15.238Z,98419.88
2023-06-02T07:09:43.675Z,98422.34
2023-06-02T07:12:12.401Z,98422.25
2023-06-02T07:14:39.840Z,98418.16
2023-06-02T07:17:07.521Z,98426.84
2023-06-02T07:19:34.782Z,98426.38
2023-06-02T07:22:02.425Z,98431.06
2023-06-02T07:24:30.325Z,98421.31
2023-06-02T07:26:59.326Z,98423.72
2023-06-02T07:29:27.211Z,98417.38
2023-06-02T07:31:54.847Z,98425.78
2023-06-02T07:34:22.297Z,98423.44
2023-06-02T07:36:51.572Z,98421.59
2023-06-02T07:39:19.858Z,98420.88
2023-06-02T07:41:47.737Z,98426.81
2023-06-02T07:44:16.225Z,98424.31
2023-06-02T07:46:45.370Z,98427.97
2023-06-02T07:49:15.622Z,98429.16
2023-06-02T07:51:43.318Z,98440.16
2023-06-02T07:54:10.999Z,98433.06
2023-06-02T07:56:38.564Z,98430.06
2023-06-02T07:59:06.285Z,98439.25
2023-06-02T08:01:33.865Z,98431.47
2023-06-02T08:04:01.447Z,98429.22
2023-06-02T08:06:29.098Z,98432.53
2023-06-02T08:08:58.884Z,98430.72
2023-06-02T08:11:26.538Z,98433.06
2023-06-02T08:13:53.773Z,98428.19
2023-06-02T08:16:28.927Z,98429.69
2023-06-02T08:18:58.105Z,98425.81
2023-06-02T08:21:26.682Z,98430.09
2023-06-02T08:23:53.746Z,98435.19
2023-06-02T08:26:21.214Z,98427.81
2023-06-02T08:28:51.341Z,98434.47
2023-06-02T08:31:22.541Z,98439.50
2023-06-02T08:33:53.886Z,98440.91
2023-06-02T08:36:22.036Z,98440.75
2023-06-02T08:38:53.256Z,98436.28
2023-06-02T08:41:21.054Z,98426.66
2023-06-02T08:43:48.855Z,98436.22
2023-06-02T08:46:17.120Z,98437.09
2023-06-02T08:48:46.564Z,98430.38
2023-06-02T08:51:23.660Z,98428.53
2023-06-02T08:53:51.320Z,98434.94
2023-06-02T08:56:20.051Z,98428.44
2023-06-02T08:58:48.320Z,98434.91
2023-06-02T09:01:16.053Z,98433.47
2023-06-02T09:03:47.336Z,98430.75
2023-06-02T09:06:23.843Z,98433.50
2023-06-02T09:09:01.775Z,98434.50
2023-06-02T09:11:32.011Z,98439.63
2023-06-02T09:13:59.806Z,98436.97
2023-06-02T09:16:40.843Z,98432.72
2023-06-02T09:19:08.065Z,98440.97
2023-06-02T09:21:37.096Z,98429.63
2023-06-02T09:26:35.910Z,98424.91
2023-06-02T09:29:05.655Z,98435.69
2023-06-02T09:32:00.224Z,98445.25
2023-06-02T09:34:36.226Z,98437.53
2023-06-02T09:37:15.869Z,98438.66
2023-06-02T09:39:50.810Z,98434.81
2023-06-02T09:42:25.105Z,98432.69
2023-06-02T09:45:05.667Z,98435.97
2023-06-02T09:47:43.525Z,98431.09
2023-06-02T09:50:12.818Z,98435.78
2023-06-02T09:52:41.074Z,98428.59
2023-06-02T09:55:09.358Z,98431.72
2023-06-02T09:57:38.186Z,98439.75
2023-06-02T10:00:06.071Z,98436.94
2023-06-02T10:02:35.532Z,98435.13
2023-06-02T10:05:03.559Z,98445.72
2023-06-02T10:07:59.782Z,98445.31
2023-06-02T10:10:48.049Z,98434.75
2023-06-02T10:13:27.408Z,98439.72
2023-06-02T10:16:14.399Z,98439.69
2023-06-02T10:19:27.359Z,98446.13
2023-06-02T10:21:54.951Z,98445.44
2023-06-02T10:24:28.813Z,98441.84
2023-06-02T10:27:34.199Z,98444.88
2023-06-02T10:30:02.490Z,98445.72
2023-06-02T10:32:35.144Z,98456.81
2023-06-02T10:35:02.906Z,98469.13
2023-06-02T10:37:30.649Z,98457.09
2023-06-02T10:39:58.259Z,98454.22
2023-06-02T10:42:29.453Z,98457.78
2023-06-02T10:45:25.645Z,98459.97
2023-06-02T10:47:53.664Z,98455.81
2023-06-02T10:50:26.231Z,98457.06
2023-06-02T10:53:02.527Z,98458.16
2023-06-02T10:55:31.956Z,98450.19
2023-06-02T10:58:00.300Z,98453.56
2023-06-02T11:00:34.592Z,98448.97
2023-06-02T11:03:18.685Z,98447.84
2023-06-02T11:05:48.909Z,98454.28
2023-06-02T11:08:16.118Z,98449.75
2023-06-02T11:10:46.141Z,98447.84
2023-06-02T11:13:17.317Z,98455.72
2023-06-02T11:16:00.310Z,98451.41
2023-06-02T11:18:29.549Z,98444.22
2023-06-02T11:20:58.646Z,98447.50
2023-06-02T11:23:26.560Z,98454.34
2023-06-02T11:26:03.004Z,98450.69
2023-06-02T11:28:30.677Z,98452.47
2023-06-02T11:31:14.514Z,98455.16
2023-06-02T11:33:43.980Z,98452.97
2023-06-02T11:36:14.955Z,98448.94
2023-06-02T11:38:43.003Z,98449.19
2023-06-02T11:41:14.100Z,98446.94
2023-06-02T11:43:44.352Z,98452.50
2023-06-02T11:46:17.574Z,98451.19
2023-06-02T11:48:45.956Z,98449.25
2023-06-02T11:51:16.801Z,98453.97
2023-06-02T11:53:47.610Z,98454.56
2023-06-02T11:56:16.721Z,98456.31
2023-06-02T11:58:44.480Z,98459.13
2023-06-02T12:01:19.440Z,98454.91
2023-06-02T12:04:07.716Z,98464.69
2023-06-02T12:06:46.970Z,98461.16
2023-06-02T12:09:15.867Z,98456.63
2023-06-02T12:11:45.686Z,98462.59
2023-06-02T12:14:13.448Z,98458.44
2023-06-02T12:16:43.505Z,98468.03
2023-06-02T12:19:22.196Z,98458.00
2023-06-02T12:21:53.636Z,98459.13
2023-06-02T12:24:40.199Z,98459.91
2023-06-02T12:27:11.771Z,98454.53
2023-06-02T12:29:38.997Z,98455.84
2023-06-02T12:32:07.976Z,98459.25
2023-06-02T12:34:35.918Z,98453.94
2023-06-02T12:37:04.142Z,98472.00
2023-06-02T12:39:31.915Z,98464.38
2023-06-02T12:42:00.424Z,98474.78
2023-06-02T12:44:27.955Z,98466.69
2023-06-02T12:46:56.213Z,98475.19
2023-06-02T12:49:23.780Z,98469.81
2023-06-02T12:51:51.296Z,98459.94
2023-06-02T12:54:18.617Z,98465.63
2023-06-02T12:56:46.110Z,98451.97
2023-06-02T12:59:15.057Z,98462.75
2023-06-02T13:01:43.751Z,98461.09
2023-06-02T13:04:12.091Z,98458.84
2023-06-02T13:06:39.688Z,98459.47
2023-06-02T13:09:07.192Z,98465.56
2023-06-02T13:11:34.984Z,98459.38
2023-06-02T13:14:02.141Z,98458.56
2023-06-02T13:16:30.353Z,98465.25
2023-06-02T13:18:57.925Z,98461.28
2023-06-02T13:21:25.371Z,98457.25
2023-06-02T13:23:54.331Z,98454.84
2023-06-02T13:26:22.177Z,98460.09
2023-06-02T13:28:49.711Z,98452.44
2023-06-02T13:31:17.160Z,98460.53
2023-06-02T13:33:44.704Z,98462.31
2023-06-02T13:36:12.365Z,98468.75
2023-06-02T13:38:41.512Z,98464.28
2023-06-02T13:41:09.305Z,98469.34
2023-06-02T13:43:37.216Z,98471.28
2023-06-02T13:46:04.999Z,98476.53
2023-06-02T13:48:32.511Z,98479.53
2023-06-02T13:51:02.406Z,98479.28
2023-06-02T13:53:32.121Z,98475.13
2023-06-02T13:55:59.987Z,98479.06
2023-06-02T13:58:29.834Z,98478.53
2023-06-02T14:00:57.617Z,98481.09
2023-06-02T14:03:24.941Z,98481.34
2023-06-02T14:05:52.411Z,98496.72
2023-06-02T14:08:20.101Z,98496.06
2023-06-02T14:10:47.789Z,98490.41
2023-06-02T14:13:15.060Z,98495.28
2023-06-02T14:15:42.512Z,98488.78
2023-06-02T14:18:09.756Z,98500.59
2023-06-02T14:20:37.114Z,98495.72
2023-06-02T14:23:04.602Z,98506.78
2023-06-02T14:25:32.744Z,98504.66
2023-06-02T14:27:59.923Z,98516.34
2023-06-02T14:30:27.474Z,98504.09
2023-06-02T14:32:54.577Z,98513.97
2023-06-02T14:35:22.014Z,98516.53
2023-06-02T14:37:49.298Z,98531.09
2023-06-02T14:40:17.293Z,98525.44
2023-06-02T14:42:44.606Z,98521.16
2023-06-02T14:45:12.697Z,98525.91
2023-06-02T14:47:40.120Z,98527.94
2023-06-02T14:50:08.429Z,98526.25
2023-06-02T14:52:36.008Z,98530.00
2023-06-02T14:55:03.950Z,98531.22
2023-06-02T14:57:31.180Z,98536.09
2023-06-02T14:59:58.946Z,98539.19
2023-06-02T15:02:26.029Z,98543.06
2023-06-02T15:04:53.544Z,98544.78
2023-06-02T15:07:22.670Z,98535.59
2023-06-02T15:09:50.047Z,98543.84
2023-06-02T15:12:17.319Z,98535.19
2023-06-02T15:14:46.302Z,98546.56
2023-06-02T15:17:13.496Z,98540.66
2023-06-02T15:19:40.791Z,98535.66
2023-06-02T15:22:08.232Z,98526.06
2023-06-02T15:24:35.820Z,98539.69
2023-06-02T15:27:02.900Z,98542.84
2023-06-02T15:29:30.349Z,98534.47
2023-06-02T15:31:57.549Z,98546.88
2023-06-02T15:34:24.934Z,98541.91
2023-06-02T15:36:52.865Z,98546.31
2023-06-02T15:39:20.270Z,98547.63
2023-06-02T15:41:50.709Z,98547.31
2023-06-02T15:44:18.211Z,98543.31
2023-06-02T15:46:45.420Z,98548.84
2023-06-02T15:49:12.934Z,98548.94
2023-06-02T15:51:40.051Z,98555.25
2023-06-02T15:54:07.781Z,98556.09
2023-06-02T15:56:34.873Z,98566.34
2023-06-02T15:59:02.236Z,98560.53
2023-06-02T16:01:30.927Z,98564.34
2023-06-02T16:03:58.517Z,98571.66
2023-06-02T16:06:25.886Z,98584.06
2023-06-02T16:08:53.270Z,98569.22
2023-06-02T16:13:47.604Z,98571.34
2023-06-02T16:16:14.717Z,98580.63
2023-06-02T16:18:42.590Z,98571.78
2023-06-02T16:21:09.857Z,98578.19
2023-06-02T16:23:37.327Z,98580.13
2023-06-02T16:26:04.757Z,98570.78
2023-06-02T16:28:32.589Z,98574.94
2023-06-02T16:30:59.791Z,98583.47
2023-06-02T16:33:29.710Z,98587.47
2023-06-02T16:35:56.816Z,98584.72
2023-06-02T16:38:24.163Z,98581.81
2023-06-02T16:40:52.156Z,98593.47
2023-06-02T16:43:20.627Z,98584.09
2023-06-02T16:45:48.147Z,98598.06
2023-06-02T16:48:15.957Z,98603.19
2023-06-02T16:50:43.299Z,98604.84
2023-06-02T16:53:10.622Z,98605.41
2023-06-02T16:55:37.685Z,98595.50
2023-06-02T16:58:05.673Z,98603.47
2023-06-02T17:00:32.752Z,98592.84
2023-06-02T17:03:00.376Z,98603.09
2023-06-02T17:05:27.483Z,98611.25
2023-06-02T17:07:54.847Z,98610.47
2023-06-02T17:10:22.070Z,98622.38
2023-06-02T17:12:49.483Z,98635.75
2023-06-02T17:15:16.556Z,98626.28
2023-06-02T17:17:44.090Z,98635.22
2023-06-02T17:20:13.215Z,98636.75
2023-06-02T17:22:40.960Z,98637.03
2023-06-02T17:25:08.431Z,98634.09
2023-06-02T17:27:37.346Z,98648.94
2023-06-02T17:30:07.900Z,98666.78
2023-06-02T17:32:35.725Z,98651.47
2023-06-02T17:35:04.019Z,98663.72
2023-06-02T17:37:34.683Z,98671.00
2023-06-02T17:40:06.137Z,98672.97
2023-06-02T17:42:33.923Z,98679.63
2023-06-02T17:45:01.262Z,98673.88
2023-06-02T17:47:29.771Z,98672.72
2023-06-02T17:49:57.370Z,98686.78
2023-06-02T17:52:25.366Z,98678.50
2023-06-02T17:54:53.343Z,98680.72
2023-06-02T17:57:20.721Z,98682.34
2023-06-02T17:59:48.697Z,98694.44
2023-06-02T18:02:16.273Z,98682.13
2023-06-02T18:04:44.024Z,98697.09
2023-06-02T18:07:11.169Z,98696.09
2023-06-02T18:09:40.527Z,98698.00
2023-06-02T18:12:09.891Z,98705.50
2023-06-02T18:14:37.367Z,98711.00
2023-06-02T18:17:04.711Z,98713.13
2023-06-02T18:19:35.105Z,98721.31
2023-06-02T18:22:02.707Z,98727.91
2023-06-02T18:24:31.764Z,98719.75
2023-06-02T18:27:00.597Z,98731.47
2023-06-02T18:29:28.165Z,98733.16
2023-06-02T18:31:55.474Z,98749.06
2023-06-02T18:34:22.910Z,98769.50
2023-06-02T18:36:49.887Z,98750.06
2023-06-02T18:39:17.265Z,98767.03
2023-06-02T18:41:44.572Z,98769.88
2023-06-02T18:44:11.941Z,98776.28
2023-06-02T18:46:39.236Z,98781.44
2023-06-02T18:49:07.040Z,98788.72
2023-06-02T18:51:35.145Z,98783.44
2023-06-02T18:54:02.684Z,98796.91
2023-06-02T18:56:29.858Z,98789.56
2023-06-02T18:58:57.436Z,98799.19
2023-06-02T19:01:27.113Z,98799.84
2023-06-02T19:03:55.262Z,98802.53
2023-06-02T19:06:22.475Z,98805.56
2023-06-02T19:08:50.207Z,98805.53
2023-06-02T19:11:17.432Z,98808.59
2023-06-02T19:13:46.389Z,98807.97
2023-06-02T19:16:13.876Z,98816.38
2023-06-02T19:18:43.857Z,98819.47
2023-06-02T19:21:11.634Z,98820.41
2023-06-02T19:23:40.145Z,98826.09
2023-06-02T19:26:07.578Z,98831.09
2023-06-02T19:28:35.781Z,98830.00
2023-06-02T19:31:03.439Z,98832.31
2023-06-02T19:33:31.815Z,98843.97
2023-06-02T19:35:59.094Z,98851.25
2023-06-02T19:38:26.598Z,98851.13
2023-06-02T19:40:53.747Z,98858.25
2023-06-02T19:43:21.568Z,98859.88
2023-06-02T19:45:48.962Z,98860.59
2023-06-02T19:48:17.016Z,98859.50
2023-06-02T19:50:44.474Z,98863.94
2023-06-02T19:53:12.026Z,98864.72
2023-06-02T19:55:40.097Z,98863.75
2023-06-02T19:58:07.778Z,98865.72
2023-06-02T20:00:35.399Z,98866.22
2023-06-02T20:03:03.256Z,98882.03
2023-06-02T20:05:31.124Z,98876.09
2023-06-02T20:07:58.536Z,98882.19
2023-06-02T20:10:27.626Z,98878.78
2023-06-02T20:12:55.050Z,98882.38
2023-06-02T20:15:22.227Z,98897.06
2023-06-02T20:17:50.228Z,98891.38
2023-06-02T20:20:17.358Z,98896.63
2023-06-02T20:22:44.974Z,98896.34
2023-06-02T20:25:12.419Z,98890.84
2023-06-02T20:27:40.257Z,98901.69
2023-06-02T20:30:08.811Z,98896.91
2023-06-02T20:32:36.356Z,98905.28
2023-06-02T20:35:07.478Z,98907.91
2023-06-02T20:37:35.290Z,98899.97
2023-06-02T20:40:02.722Z,98906.81
2023-06-02T20:42:31.404Z,98908.84
2023-06-02T20:44:58.634Z,98907.59
2023-06-02T20:47:26.624Z,98910.19
2023-06-02T20:49:53.908Z,98912.88
2023-06-02T20:52:21.506Z,98918.72
2023-06-02T20:54:51.373Z,98912.09
2023-06-02T20:57:18.692Z,98927.78
2023-06-02T20:59:46.451Z,98921.66
2023-06-02T21:02:14.132Z,98916.50
2023-06-02T21:04:43.592Z,98921.16
2023-06-02T21:07:11.894Z,98921.00
2023-06-02T21:09:39.269Z,98910.38
2023-06-02T21:12:07.240Z,98918.75
2023-06-02T21:14:34.659Z,98917.09
2023-06-02T21:17:02.403Z,98922.38
2023-06-02T21:19:29.660Z,98920.47
2023-06-02T21:21:59.828Z,98927.41
2023-06-02T21:24:26.883Z,98921.22
2023-06-02T21:26:54.347Z,98916.38
2023-06-02T21:29:21.806Z,98921.28
2023-06-02T21:31:51.831Z,98915.59
2023-06-02T21:34:19.073Z,98913.91
2023-06-02T21:36:46.537Z,98904.28
2023-06-02T21:39:13.667Z,98902.84
2023-06-02T21:41:43.716Z,98915.22
2023-06-02T21:44:10.962Z,98919.16
2023-06-02T21:46:38.530Z,98910.31
2023-06-02T21:49:05.845Z,98915.47
2023-06-02T21:51:33.267Z,98911.50
2023-06-02T21:54:00.770Z,98916.66
2023-06-02T21:56:28.387Z,98912.84
2023-06-02T21:58:55.625Z,98921.53
2023-06-02T22:01:23.540Z,98913.91
2023-06-02T22:03:51.726Z,98906.84
2023-06-02T22:06:19.701Z,98916.66
2023-06-02T22:08:51.325Z,98913.00
2023-06-02T22:11:24.053Z,98911.69
2023-06-02T22:13:54.169Z,98906.34
2023-06-02T22:16:22.196Z,98902.84
2023-06-02T22:18:49.491Z,98908.38
2023-06-02T22:21:19.989Z,98902.44
2023-06-02T22:23:56.958Z,98908.13
2023-06-02T22:26:24.570Z,98908.13
2023-06-02T22:28:54.247Z,98904.06
2023-06-02T22:31:21.825Z,98913.88
2023-06-02T22:33:49.089Z,98910.03
2023-06-02T22:36:16.636Z,98913.53
2023-06-02T22:38:44.009Z,98907.66
2023-06-02T22:41:11.460Z,98912.66
2023-06-02T22:43:38.593Z,98909.56
2023-06-02T22:46:06.193Z,98916.22
2023-06-02T22:48:33.352Z,98915.31
2023-06-02T22:51:00.625Z,98922.72
2023-06-02T22:53:30.673Z,98917.22
2023-06-02T22:56:00.332Z,98913.75
2023-06-02T22:58:27.982Z,98924.16
2023-06-02T23:00:55.639Z,98912.41
2023-06-02T23:03:22.879Z,98914.66
2023-06-02T23:05:50.558Z,98920.03
2023-06-02T23:08:20.668Z,98918.31
2023-06-02T23:10:49.081Z,98911.66
2023-06-02T23:13:19.464Z,98919.78
2023-06-02T23:15:47.414Z,98925.03
2023-06-02T23:18:14.684Z,98919.38
2023-06-02T23:20:42.044Z,98919.19
2023-06-02T23:23:09.687Z,98926.19
2023-06-02T23:25:37.163Z,98932.50
2023-06-02T23:28:04.568Z,98931.72
2023-06-02T23:30:32.186Z,98936.50
2023-06-02T23:32:59.761Z,98938.84
2023-06-02T23:35:27.206Z,98936.84
2023-06-02T23:37:54.470Z,98949.59
2023-06-02T23:40:21.880Z,98945.22
2023-06-02T23:43:08.969Z,98950.06
2023-06-02T23:45:36.475Z,98963.78
2023-06-02T23:48:03.856Z,98959.41
2023-06-02T23:50:31.612Z,98958.19
2023-06-02T23:52:58.841Z,98964.41
2023-06-02T23:55:26.499Z,98965.56
2023-06-02T23:57:53.721Z,98966.22
